Time;durP1;ratioP1;P1;durP2;ratioP2;P2;SDS_P1;SDS_P2;PMS_P1;PMS_P2;Temp;Humidity;BMP_temperature;BMP_pressure;BME280_temperature;BME280_humidity;BME280_pressure;Samples;Min_cycle;Max_cycle;Signal;HPM_P1;HPM_P2
2024/02/29 00:02:01;;;;;;;0.80;0.80;;;9.90;99.90;;;;;;5022684;28;20044;-89
2024/02/29 00:04:28;;;;;;;0.80;0.80;;;9.90;99.90;;;;;;5007254;28;20022;-90
2024/02/29 00:07:01;;;;;;;0.60;0.60;;;9.90;99.90;;;;;;4999999;28;20022;-90
2024/02/29 00:09:27;;;;;;;1.95;0.65;;;10.00;99.90;;;;;;5015263;28;20053;-91
2024/02/29 00:11:53;;;;;;;1.10;0.75;;;10.00;99.90;;;;;;4997426;28;20062;-89
2024/02/29 00:14:19;;;;;;;1.52;0.65;;;10.00;99.90;;;;;;4996938;28;20100;-89
2024/02/29 00:16:45;;;;;;;0.30;0.30;;;10.00;99.90;;;;;;4997378;28;20022;-90
2024/02/29 00:19:11;;;;;;;0.50;0.50;;;10.00;99.90;;;;;;4997649;28;20487;-89
2024/02/29 00:21:37;;;;;;;0.60;0.60;;;10.10;99.90;;;;;;4996943;28;20420;-91
2024/02/29 00:24:03;;;;;;;0.75;0.50;;;10.00;99.90;;;;;;4997517;28;20117;-89
2024/02/29 00:26:29;;;;;;;0.40;0.40;;;10.10;99.90;;;;;;4997087;28;20117;-89
2024/02/29 00:28:55;;;;;;;0.50;0.40;;;10.10;99.90;;;;;;4997179;28;20061;-89
2024/02/29 00:31:24;;;;;;;0.50;0.47;;;10.00;99.90;;;;;;5014686;28;20018;-90
2024/02/29 00:33:51;;;;;;;0.43;0.40;;;10.00;99.90;;;;;;4996734;28;20372;-89
2024/02/29 00:36:16;;;;;;;0.50;0.50;;;10.00;99.90;;;;;;4997133;28;20029;-89
2024/02/29 00:38:42;;;;;;;0.70;0.50;;;10.00;99.90;;;;;;4996506;28;20029;-89
2024/02/29 00:41:08;;;;;;;0.80;0.57;;;10.00;99.90;;;;;;4997252;28;20081;-89
2024/02/29 00:43:33;;;;;;;0.40;0.40;;;9.90;99.90;;;;;;4996862;28;20034;-90
2024/02/29 00:46:00;;;;;;;0.70;0.70;;;9.90;99.90;;;;;;5012406;28;20018;-89
2024/02/29 00:48:26;;;;;;;2.60;0.50;;;9.90;99.90;;;;;;4996139;28;20074;-91
2024/02/29 00:50:51;;;;;;;0.40;0.40;;;9.90;99.90;;;;;;4996575;28;20030;-92
2024/02/29 00:53:17;;;;;;;0.50;0.50;;;9.90;99.90;;;;;;5012055;28;20066;-90
2024/02/29 00:55:43;;;;;;;0.57;0.57;;;9.90;99.90;;;;;;4996017;28;20809;-90
2024/02/29 00:58:09;;;;;;;0.52;0.52;;;9.90;99.90;;;;;;4997129;28;20030;-91
2024/02/29 01:00:35;;;;;;;0.85;0.65;;;9.90;99.90;;;;;;4996541;28;20056;-91
2024/02/29 01:03:01;;;;;;;0.93;0.70;;;9.90;99.90;;;;;;4997038;28;20112;-91
2024/02/29 01:05:26;;;;;;;0.70;0.70;;;9.90;99.90;;;;;;4994697;28;20018;-90
2024/02/29 01:07:52;;;;;;;1.20;0.73;;;9.90;99.90;;;;;;4995759;28;20037;-90
2024/02/29 01:10:18;;;;;;;0.60;0.60;;;9.90;99.90;;;;;;5013299;28;20164;-90
2024/02/29 01:12:44;;;;;;;0.68;0.68;;;9.90;99.90;;;;;;4996779;28;20060;-90
2024/02/29 01:15:11;;;;;;;0.70;0.70;;;9.80;99.90;;;;;;4997135;28;20631;-89
2024/02/29 01:17:37;;;;;;;0.90;0.90;;;9.80;99.90;;;;;;5013742;28;20026;-91
2024/02/29 01:20:07;;;;;;;0.80;0.80;;;9.80;99.90;;;;;;4997257;28;20021;-90
2024/02/29 01:22:33;;;;;;;1.00;1.00;;;9.90;99.90;;;;;;4997219;28;20022;-91
2024/02/29 01:24:59;;;;;;;1.30;1.20;;;9.80;99.90;;;;;;5012057;28;20030;-90
2024/02/29 01:27:25;;;;;;;1.02;1.02;;;9.80;99.90;;;;;;4996309;28;20060;-91
2024/02/29 01:29:50;;;;;;;0.80;0.80;;;9.80;99.90;;;;;;4996685;28;20087;-90
2024/02/29 01:32:16;;;;;;;0.70;0.70;;;9.80;99.90;;;;;;4995559;28;20018;-90
2024/02/29 01:34:42;;;;;;;1.15;1.05;;;9.80;99.90;;;;;;5010558;28;20040;-92
2024/02/29 01:37:07;;;;;;;1.65;1.55;;;9.80;99.90;;;;;;4995745;28;20018;-90
2024/02/29 01:39:34;;;;;;;1.40;1.30;;;9.80;99.90;;;;;;4994501;28;20026;-90
2024/02/29 01:42:00;;;;;;;1.65;1.48;;;9.80;99.90;;;;;;4994702;28;20025;-92
2024/02/29 01:44:28;;;;;;;1.17;1.17;;;9.80;99.90;;;;;;4995546;28;20041;-90
2024/02/29 01:46:54;;;;;;;1.17;0.98;;;9.80;99.90;;;;;;4995750;28;20114;-90
2024/02/29 01:49:22;;;;;;;0.88;0.88;;;9.80;99.90;;;;;;4995863;28;20442;-91
2024/02/29 01:51:49;;;;;;;2.92;0.98;;;9.80;99.90;;;;;;4994890;28;20022;-91
2024/02/29 01:54:15;;;;;;;0.60;0.60;;;9.80;99.90;;;;;;4996049;28;20042;-90
2024/02/29 01:56:42;;;;;;;0.60;0.60;;;9.80;99.90;;;;;;4996714;28;20076;-91
2024/02/29 01:59:07;;;;;;;0.50;0.50;;;9.80;99.90;;;;;;4997380;28;20034;-91
2024/02/29 02:01:34;;;;;;;0.57;0.57;;;9.80;99.90;;;;;;4996724;28;20032;-90
2024/02/29 02:04:00;;;;;;;0.40;0.40;;;9.80;99.90;;;;;;5011710;28;20030;-91
2024/02/29 02:06:26;;;;;;;2.20;0.50;;;9.80;99.90;;;;;;4998819;28;20026;-92
2024/02/29 02:08:51;;;;;;;1.08;0.40;;;9.80;99.90;;;;;;5001022;28;20506;-89
2024/02/29 02:11:17;;;;;;;1.27;0.50;;;9.80;99.90;;;;;;5002219;28;20288;-91
2024/02/29 02:13:43;;;;;;;0.65;0.30;;;9.80;99.90;;;;;;5001930;28;20052;-90
2024/02/29 02:16:09;;;;;;;0.20;0.20;;;9.70;99.90;;;;;;5001356;28;20084;-90
2024/02/29 02:18:35;;;;;;;1.05;0.30;;;9.70;99.90;;;;;;4996758;28;20081;-90
2024/02/29 02:21:01;;;;;;;2.33;0.30;;;9.70;99.90;;;;;;5013246;28;20112;-90
2024/02/29 02:23:27;;;;;;;0.20;0.20;;;9.70;99.90;;;;;;4996453;28;20049;-91
2024/02/29 02:25:59;;;;;;;0.30;0.20;;;9.70;99.90;;;;;;4996165;28;20064;-90
2024/02/29 02:28:25;;;;;;;0.10;0.10;;;9.70;99.90;;;;;;5009503;28;20049;-89
2024/02/29 02:30:51;;;;;;;2.85;0.40;;;9.70;99.90;;;;;;4995393;28;20075;-90
2024/02/29 02:33:17;;;;;;;1.98;0.30;;;9.70;99.90;;;;;;4994993;28;20033;-89
2024/02/29 02:35:42;;;;;;;0.95;0.22;;;9.70;99.90;;;;;;4995832;28;20029;-90
2024/02/29 02:38:08;;;;;;;2.75;0.55;;;9.70;99.90;;;;;;4995237;28;20022;-90
2024/02/29 02:40:36;;;;;;;1.13;0.70;;;9.70;99.90;;;;;;4994863;28;20117;-90
2024/02/29 02:43:02;;;;;;;1.38;0.40;;;9.70;99.90;;;;;;5011774;28;20022;-91
2024/02/29 02:45:28;;;;;;;0.22;0.15;;;9.70;99.90;;;;;;4995340;28;20484;-90
2024/02/29 02:47:54;;;;;;;0.35;0.20;;;9.70;99.90;;;;;;4996270;28;20105;-90
2024/02/29 02:50:20;;;;;;;1.23;0.32;;;9.70;99.90;;;;;;5011133;28;20025;-90
2024/02/29 02:52:46;;;;;;;3.05;0.40;;;9.70;99.90;;;;;;4995103;28;20021;-90
2024/02/29 02:55:12;;;;;;;1.55;0.52;;;9.60;99.90;;;;;;4995495;28;20022;-90
2024/02/29 02:57:37;;;;;;;2.50;0.57;;;9.60;99.90;;;;;;4994397;28;20040;-91
2024/02/29 03:00:05;;;;;;;1.15;0.45;;;9.60;99.90;;;;;;4994925;28;20113;-91
2024/02/29 03:02:30;;;;;;;2.90;0.50;;;9.60;99.90;;;;;;4994465;28;20024;-90
2024/02/29 03:04:56;;;;;;;1.98;0.47;;;9.60;99.90;;;;;;4994362;28;20025;-89
2024/02/29 03:07:22;;;;;;;2.83;0.52;;;9.50;99.90;;;;;;4994544;28;20026;-89
2024/02/29 03:09:48;;;;;;;1.10;0.40;;;9.50;99.90;;;;;;4994732;28;20510;-90
2024/02/29 03:12:15;;;;;;;8.65;0.50;;;9.50;99.90;;;;;;4994506;28;20512;-90
2024/02/29 03:14:40;;;;;;;2.80;0.50;;;9.50;99.90;;;;;;5009177;28;20033;-89
2024/02/29 03:17:06;;;;;;;0.35;0.20;;;9.40;99.90;;;;;;4993824;28;20028;-89
2024/02/29 03:19:31;;;;;;;3.80;1.02;;;9.40;99.90;;;;;;4994756;28;20030;-90
2024/02/29 03:21:57;;;;;;;0.75;0.40;;;9.30;99.90;;;;;;4994812;28;20586;-89
2024/02/29 03:24:23;;;;;;;0.25;0.25;;;9.30;99.90;;;;;;4994389;28;20017;-90
2024/02/29 03:26:48;;;;;;;0.88;0.47;;;9.30;99.90;;;;;;4993911;28;20033;-90
2024/02/29 03:29:14;;;;;;;1.13;0.30;;;9.30;99.90;;;;;;4993931;28;20441;-90
2024/02/29 03:31:44;;;;;;;0.45;0.30;;;9.30;99.90;;;;;;5008440;28;20118;-90
2024/02/29 03:34:10;;;;;;;0.50;0.30;;;9.30;99.90;;;;;;4994084;28;20045;-89
2024/02/29 03:36:36;;;;;;;0.55;0.50;;;9.30;99.90;;;;;;4994133;28;20030;-89
2024/02/29 03:39:04;;;;;;;0.80;0.50;;;9.30;99.90;;;;;;5009686;28;20121;-88
2024/02/29 03:41:31;;;;;;;0.88;0.50;;;9.30;99.90;;;;;;4993918;28;20030;-90
2024/02/29 03:43:56;;;;;;;1.10;0.20;;;9.20;99.90;;;;;;4992335;28;20138;-88
2024/02/29 03:46:22;;;;;;;0.68;0.50;;;9.20;99.90;;;;;;4993687;28;20112;-89
2024/02/29 03:48:48;;;;;;;0.30;0.30;;;9.30;99.90;;;;;;4994103;28;20026;-89
2024/02/29 03:51:15;;;;;;;0.82;0.30;;;9.20;99.90;;;;;;4994304;28;20068;-89
2024/02/29 03:53:41;;;;;;;0.30;0.30;;;9.30;99.90;;;;;;5009126;28;20156;-90
2024/02/29 03:56:07;;;;;;;0.88;0.60;;;9.30;99.90;;;;;;4993393;28;20026;-88
2024/02/29 03:58:32;;;;;;;0.40;0.40;;;9.30;99.90;;;;;;4992492;28;20033;-90
2024/02/29 04:00:58;;;;;;;0.25;0.25;;;9.20;99.90;;;;;;4992231;28;20034;-90
2024/02/29 04:03:24;;;;;;;0.32;0.32;;;9.20;99.90;;;;;;4994380;28;20030;-88
2024/02/29 04:05:49;;;;;;;0.55;0.35;;;9.20;99.90;;;;;;5001459;28;20026;-89
2024/02/29 04:08:15;;;;;;;0.75;0.40;;;9.20;99.90;;;;;;5001341;28;20057;-89
2024/02/29 04:10:44;;;;;;;0.38;0.30;;;9.20;99.90;;;;;;5015100;28;20026;-89
2024/02/29 04:13:10;;;;;;;0.70;0.40;;;9.20;99.90;;;;;;4993615;28;20045;-89
2024/02/29 04:15:36;;;;;;;1.08;0.45;;;9.20;99.90;;;;;;5009674;28;20018;-89
2024/02/29 04:18:03;;;;;;;0.30;0.30;;;9.20;99.90;;;;;;5010377;28;20113;-90
2024/02/29 04:20:30;;;;;;;7.15;0.95;;;9.20;99.90;;;;;;4994431;28;20026;-92
2024/02/29 04:22:56;;;;;;;8.32;1.40;;;9.10;99.90;;;;;;4991407;28;20139;-90
2024/02/29 04:25:26;;;;;;;3.55;1.42;;;9.10;99.90;;;;;;5022989;28;20036;-89
2024/02/29 04:27:52;;;;;;;13.43;1.83;;;9.00;99.90;;;;;;5007129;28;20125;-90
2024/02/29 04:30:18;;;;;;;9.27;1.70;;;8.90;99.90;;;;;;4995497;28;20068;-90
2024/02/29 04:32:44;;;;;;;9.35;2.17;;;8.90;99.90;;;;;;5002442;28;20061;-90
2024/02/29 04:35:10;;;;;;;16.20;1.80;;;8.80;99.90;;;;;;5000990;28;20034;-90
2024/02/29 04:37:39;;;;;;;14.65;1.70;;;8.70;99.90;;;;;;4999215;28;20036;-90
2024/02/29 04:40:07;;;;;;;15.38;2.60;;;8.60;99.90;;;;;;4997517;28;20053;-90
2024/02/29 04:42:33;;;;;;;13.07;1.80;;;8.60;99.90;;;;;;4999277;28;20115;-89
2024/02/29 04:44:59;;;;;;;10.48;2.90;;;8.50;99.90;;;;;;4998682;28;20113;-91
2024/02/29 04:47:25;;;;;;;15.23;2.08;;;8.50;99.90;;;;;;5000345;28;20022;-90
2024/02/29 04:49:51;;;;;;;19.80;3.17;;;8.40;99.90;;;;;;4998703;28;20037;-90
2024/02/29 04:52:17;;;;;;;11.20;2.22;;;8.40;99.90;;;;;;4999824;28;20064;-90
2024/02/29 04:54:43;;;;;;;15.25;1.90;;;8.40;99.90;;;;;;5016828;28;20041;-90
2024/02/29 04:57:09;;;;;;;10.45;1.85;;;8.30;99.90;;;;;;4997961;28;20030;-89
2024/02/29 04:59:35;;;;;;;16.55;2.40;;;8.30;99.90;;;;;;4999199;28;20040;-90
2024/02/29 05:02:01;;;;;;;10.82;1.55;;;8.30;99.90;;;;;;4998964;28;20021;-89
2024/02/29 05:04:27;;;;;;;20.00;2.80;;;8.30;99.90;;;;;;4999381;28;20511;-90
2024/02/29 05:06:53;;;;;;;14.68;2.53;;;8.30;99.90;;;;;;4997587;28;20109;-89
2024/02/29 05:09:19;;;;;;;11.25;1.90;;;8.30;99.90;;;;;;4998469;28;20515;-90
2024/02/29 05:11:45;;;;;;;17.73;2.83;;;8.30;99.90;;;;;;4995942;28;20109;-89
2024/02/29 05:14:11;;;;;;;20.30;2.45;;;8.20;99.90;;;;;;5004709;28;20117;-89
2024/02/29 05:16:37;;;;;;;11.77;2.20;;;8.20;99.90;;;;;;4996225;28;20072;-90
2024/02/29 05:19:02;;;;;;;20.83;2.78;;;8.20;99.90;;;;;;4997425;28;20443;-89
2024/02/29 05:21:28;;;;;;;17.75;2.10;;;8.20;99.90;;;;;;4996963;28;20025;-89
2024/02/29 05:23:54;;;;;;;17.20;2.78;;;8.20;99.90;;;;;;4997564;28;20038;-88
2024/02/29 05:26:20;;;;;;;14.00;2.47;;;8.10;99.90;;;;;;5011467;28;20064;-89
2024/02/29 05:28:47;;;;;;;21.02;3.30;;;8.10;99.90;;;;;;4996254;28;20065;-89
2024/02/29 05:31:13;;;;;;;17.10;2.58;;;8.10;99.90;;;;;;4995361;28;20026;-89
2024/02/29 05:33:40;;;;;;;17.13;2.40;;;8.10;99.90;;;;;;4996564;28;20041;-89
2024/02/29 05:36:07;;;;;;;21.00;2.88;;;8.00;99.90;;;;;;4995710;28;20018;-89
2024/02/29 05:38:33;;;;;;;17.27;2.63;;;8.00;99.90;;;;;;4996483;28;20030;-88
2024/02/29 05:41:02;;;;;;;19.60;2.70;;;8.00;99.90;;;;;;4996136;28;20033;-88
2024/02/29 05:43:27;;;;;;;20.00;2.10;;;8.00;99.90;;;;;;4997740;28;20057;-89
2024/02/29 05:45:53;;;;;;;18.15;3.45;;;8.00;99.90;;;;;;5002964;28;20030;-88
2024/02/29 05:48:19;;;;;;;17.42;2.38;;;7.90;99.90;;;;;;5004506;28;20080;-89
2024/02/29 05:50:44;;;;;;;17.75;2.45;;;7.90;99.90;;;;;;5004678;28;20018;-89
2024/02/29 05:53:10;;;;;;;11.27;2.22;;;7.90;99.90;;;;;;4998716;28;20083;-89
2024/02/29 05:55:36;;;;;;;15.10;2.10;;;7.90;99.90;;;;;;4997212;28;20049;-89
2024/02/29 05:58:02;;;;;;;15.88;2.45;;;7.90;99.90;;;;;;4996389;28;20117;-88
2024/02/29 06:00:28;;;;;;;16.67;2.47;;;7.80;99.90;;;;;;4996781;28;20492;-88
2024/02/29 06:02:53;;;;;;;16.02;2.20;;;7.80;99.90;;;;;;4997031;28;20443;-88
2024/02/29 06:05:19;;;;;;;18.13;2.30;;;7.80;99.90;;;;;;5008959;28;20026;-90
2024/02/29 06:07:45;;;;;;;20.85;2.22;;;7.80;99.90;;;;;;4993939;28;20121;-90
2024/02/29 06:10:11;;;;;;;24.40;3.90;;;7.80;99.90;;;;;;4994802;28;20112;-89
2024/02/29 06:12:37;;;;;;;11.57;1.73;;;7.80;99.90;;;;;;4993318;28;20022;-89
2024/02/29 06:15:04;;;;;;;16.42;2.72;;;7.80;99.90;;;;;;4994625;28;20038;-89
2024/02/29 06:17:29;;;;;;;16.27;1.98;;;7.80;99.90;;;;;;4993841;28;20034;-90
2024/02/29 06:19:55;;;;;;;19.73;3.72;;;7.80;99.90;;;;;;4992833;28;20041;-89
2024/02/29 06:22:22;;;;;;;19.38;2.40;;;7.80;99.90;;;;;;4993058;28;20028;-91
2024/02/29 06:24:51;;;;;;;24.58;2.63;;;7.80;99.90;;;;;;4994706;28;20073;-89
2024/02/29 06:27:20;;;;;;;13.75;2.05;;;7.70;99.90;;;;;;4992810;28;20069;-89
2024/02/29 06:29:46;;;;;;;21.15;3.03;;;7.70;99.90;;;;;;4992158;28;20026;-90
2024/02/29 06:32:13;;;;;;;33.72;4.03;;;7.70;99.90;;;;;;4993477;28;20037;-90
2024/02/29 06:34:39;;;;;;;19.90;2.40;;;7.70;99.90;;;;;;4993940;28;20042;-89
2024/02/29 06:37:06;;;;;;;22.40;2.42;;;7.70;99.90;;;;;;4993603;28;20495;-90
2024/02/29 06:39:32;;;;;;;23.33;3.03;;;7.70;99.90;;;;;;4993898;28;20037;-90
2024/02/29 06:42:01;;;;;;;23.25;2.70;;;7.70;99.90;;;;;;4994817;28;20487;-89
2024/02/29 06:44:27;;;;;;;24.15;2.67;;;7.70;99.90;;;;;;4995094;28;20030;-89
2024/02/29 06:46:53;;;;;;;17.85;2.30;;;7.70;99.90;;;;;;4995336;28;20034;-89
2024/02/29 06:49:23;;;;;;;16.60;1.83;;;7.60;99.90;;;;;;4995414;28;20021;-90
2024/02/29 06:51:50;;;;;;;25.33;3.67;;;7.60;99.90;;;;;;4994221;28;20032;-89
2024/02/29 06:54:17;;;;;;;20.10;3.00;;;7.60;99.90;;;;;;4995401;28;20312;-89
2024/02/29 06:56:44;;;;;;;15.65;2.78;;;7.60;99.90;;;;;;4995065;28;20037;-89
2024/02/29 06:59:10;;;;;;;19.42;3.40;;;7.60;99.90;;;;;;5002674;28;20108;-89
2024/02/29 07:01:36;;;;;;;17.38;2.30;;;7.60;99.90;;;;;;4994929;28;20453;-90
2024/02/29 07:04:02;;;;;;;30.52;3.90;;;7.60;99.90;;;;;;5009461;28;20037;-89
2024/02/29 07:06:28;;;;;;;25.23;3.45;;;7.60;99.90;;;;;;4992998;28;20018;-90
2024/02/29 07:08:54;;;;;;;19.02;2.85;;;7.60;99.90;;;;;;4994126;28;20021;-90
2024/02/29 07:11:20;;;;;;;18.50;2.60;;;7.60;99.90;;;;;;4994143;28;20022;-89
2024/02/29 07:13:49;;;;;;;25.52;3.28;;;7.60;99.90;;;;;;4994606;28;20061;-91
2024/02/29 07:16:15;;;;;;;24.27;4.60;;;7.60;99.90;;;;;;4994329;28;20105;-91
2024/02/29 07:18:40;;;;;;;20.63;3.20;;;7.60;99.90;;;;;;4994955;28;20113;-90
2024/02/29 07:21:06;;;;;;;30.08;3.80;;;7.60;99.90;;;;;;4994812;28;20030;-89
2024/02/29 07:23:32;;;;;;;19.08;3.47;;;7.60;99.90;;;;;;4994729;28;20450;-91
2024/02/29 07:26:02;;;;;;;20.50;3.15;;;7.50;99.90;;;;;;4991610;28;20490;-90
2024/02/29 07:28:27;;;;;;;20.35;4.05;;;7.60;99.90;;;;;;4993709;28;20041;-91
2024/02/29 07:30:53;;;;;;;19.95;3.35;;;7.50;99.90;;;;;;4994018;28;20026;-90
2024/02/29 07:33:19;;;;;;;30.05;5.43;;;7.50;99.90;;;;;;5012005;28;20072;-88
2024/02/29 07:35:46;;;;;;;25.73;3.90;;;7.50;99.90;;;;;;4995160;28;20029;-89
2024/02/29 07:38:12;;;;;;;21.00;2.78;;;7.50;99.90;;;;;;4993141;28;20017;-89
2024/02/29 07:40:37;;;;;;;20.38;2.90;;;7.50;99.90;;;;;;4994733;28;20083;-89
2024/02/29 07:43:03;;;;;;;19.52;3.33;;;7.50;99.90;;;;;;5004475;28;20117;-90
2024/02/29 07:45:29;;;;;;;19.33;2.38;;;7.50;99.90;;;;;;4994220;28;20033;-91
2024/02/29 07:47:55;;;;;;;25.55;3.90;;;7.50;99.90;;;;;;4994122;28;20037;-90
2024/02/29 07:50:20;;;;;;;14.50;2.92;;;7.50;99.90;;;;;;4993627;28;20014;-89
2024/02/29 07:52:47;;;;;;;15.55;3.00;;;7.50;99.90;;;;;;4994819;28;20040;-89
2024/02/29 07:55:16;;;;;;;27.35;2.97;;;7.50;99.90;;;;;;4994867;28;20038;-90
2024/02/29 07:57:46;;;;;;;25.25;3.53;;;7.50;99.90;;;;;;4995032;28;20018;-88
2024/02/29 08:00:12;;;;;;;25.17;3.95;;;7.50;99.90;;;;;;4995777;28;20025;-89
2024/02/29 08:02:46;;;;;;;16.45;3.25;;;7.60;99.90;;;;;;4995024;28;20030;-89
2024/02/29 08:05:12;;;;;;;22.52;3.20;;;7.60;99.90;;;;;;4996554;28;20037;-89
2024/02/29 08:07:38;;;;;;;32.53;3.90;;;7.60;99.90;;;;;;4998546;28;20018;-89
2024/02/29 08:10:05;;;;;;;26.55;3.70;;;7.70;99.90;;;;;;4998649;28;20584;-91
2024/02/29 08:12:31;;;;;;;29.70;5.03;;;7.70;99.90;;;;;;4998006;28;20479;-89
2024/02/29 08:14:57;;;;;;;20.83;2.90;;;7.70;99.90;;;;;;4998638;28;20041;-90
2024/02/29 08:17:26;;;;;;;29.30;3.03;;;7.80;99.90;;;;;;4998177;28;20768;-89
2024/02/29 08:19:53;;;;;;;22.50;3.22;;;7.80;99.90;;;;;;4999949;28;20045;-90
2024/02/29 08:22:18;;;;;;;19.75;3.30;;;7.80;99.90;;;;;;4999281;28;20022;-89
2024/02/29 08:24:44;;;;;;;19.80;3.08;;;7.90;99.90;;;;;;4999389;28;20401;-89
2024/02/29 08:27:10;;;;;;;23.90;3.72;;;7.90;99.90;;;;;;4997100;28;20041;-89
2024/02/29 08:29:35;;;;;;;24.80;2.90;;;7.90;99.90;;;;;;4997002;28;20483;-90
2024/02/29 08:32:02;;;;;;;21.45;2.72;;;7.90;99.90;;;;;;4997551;28;20064;-90
2024/02/29 08:34:28;;;;;;;17.20;3.47;;;7.90;99.90;;;;;;4998009;28;20037;-88
2024/02/29 08:36:54;;;;;;;20.65;3.08;;;7.90;99.90;;;;;;4998227;28;20041;-90
2024/02/29 08:39:20;;;;;;;19.50;2.95;;;7.90;99.90;;;;;;4997991;28;20049;-90
2024/02/29 08:41:47;;;;;;;19.38;3.05;;;7.90;99.90;;;;;;4998792;28;20028;-90
2024/02/29 08:44:15;;;;;;;25.05;3.30;;;7.90;99.90;;;;;;4998009;28;20029;-91
2024/02/29 08:46:42;;;;;;;18.02;3.45;;;7.90;99.90;;;;;;4997492;28;20026;-90
2024/02/29 08:49:07;;;;;;;22.48;3.15;;;7.90;99.90;;;;;;4998791;28;20034;-90
2024/02/29 08:51:33;;;;;;;16.85;2.42;;;7.90;99.90;;;;;;4999280;28;20522;-90
2024/02/29 08:53:59;;;;;;;21.10;3.75;;;8.00;99.90;;;;;;4999550;28;20029;-89
2024/02/29 08:56:25;;;;;;;19.92;2.47;;;8.00;99.90;;;;;;5005600;28;20072;-91
2024/02/29 08:58:51;;;;;;;21.70;2.60;;;8.00;99.90;;;;;;5007356;28;20026;-90
2024/02/29 09:01:19;;;;;;;21.98;2.50;;;8.00;99.90;;;;;;5008412;28;20471;-91
2024/02/29 09:03:45;;;;;;;25.02;4.78;;;8.00;99.90;;;;;;4999637;28;20109;-90
2024/02/29 09:06:12;;;;;;;13.68;2.40;;;8.10;99.90;;;;;;4996317;28;20053;-91
2024/02/29 09:08:38;;;;;;;14.63;2.15;;;8.10;99.90;;;;;;4998600;28;20462;-90
2024/02/29 09:11:04;;;;;;;21.38;2.00;;;8.10;99.90;;;;;;4997446;28;20118;-90
2024/02/29 09:13:29;;;;;;;18.85;2.60;;;8.10;99.90;;;;;;4993180;28;20030;-90
2024/02/29 09:15:56;;;;;;;21.98;2.55;;;8.10;99.90;;;;;;4989024;28;20034;-92
2024/02/29 09:18:22;;;;;;;23.00;3.00;;;8.10;99.90;;;;;;5011398;28;20106;-90
2024/02/29 09:20:48;;;;;;;28.15;2.60;;;8.20;99.90;;;;;;4997812;28;20839;-91
2024/02/29 09:23:14;;;;;;;21.77;2.35;;;8.20;99.90;;;;;;4999763;28;20022;-89
2024/02/29 09:25:39;;;;;;;19.25;2.47;;;8.30;99.90;;;;;;4999201;28;20030;-90
2024/02/29 09:28:05;;;;;;;21.05;2.58;;;8.30;99.90;;;;;;5008650;28;20675;-90
2024/02/29 09:30:31;;;;;;;13.57;2.33;;;8.40;99.90;;;;;;4996994;28;20025;-90
2024/02/29 09:32:57;;;;;;;18.77;2.30;;;8.40;99.90;;;;;;4999696;28;20072;-90
2024/02/29 09:35:22;;;;;;;28.05;3.17;;;8.40;99.90;;;;;;4998545;28;20025;-91
2024/02/29 09:37:48;;;;;;;13.27;2.10;;;8.40;99.90;;;;;;4996192;28;20459;-90
2024/02/29 09:40:15;;;;;;;16.63;2.53;;;8.40;99.90;;;;;;4996075;28;20052;-91
2024/02/29 09:42:44;;;;;;;15.40;2.33;;;8.40;99.90;;;;;;4996415;28;20026;-90
2024/02/29 09:45:13;;;;;;;15.93;2.58;;;8.30;99.90;;;;;;4995152;28;20010;-92
2024/02/29 09:47:42;;;;;;;18.15;2.40;;;8.30;99.90;;;;;;4996311;28;20037;-90
2024/02/29 09:50:08;;;;;;;16.60;2.28;;;8.30;99.90;;;;;;4995348;28;20034;-90
2024/02/29 09:52:36;;;;;;;22.42;2.85;;;8.30;99.90;;;;;;4996261;28;20054;-90
2024/02/29 09:55:04;;;;;;;15.93;2.30;;;8.30;99.90;;;;;;4995694;28;20026;-91
2024/02/29 09:57:33;;;;;;;19.23;2.55;;;8.30;99.90;;;;;;4994512;28;20025;-90
2024/02/29 10:00:01;;;;;;;21.77;3.72;;;8.30;99.90;;;;;;4995341;28;20079;-90
2024/02/29 10:02:26;;;;;;;18.42;2.35;;;8.30;99.90;;;;;;4994998;28;20034;-92
2024/02/29 10:04:52;;;;;;;27.95;2.80;;;8.30;99.90;;;;;;4994850;28;20124;-91
2024/02/29 10:07:19;;;;;;;17.80;2.95;;;8.30;99.90;;;;;;4994362;28;20030;-91
2024/02/29 10:09:45;;;;;;;14.35;2.17;;;8.30;99.90;;;;;;4995289;28;20022;-92
2024/02/29 10:12:18;;;;;;;15.80;2.60;;;8.30;99.90;;;;;;4995504;28;20081;-90
2024/02/29 10:14:45;;;;;;;12.57;2.83;;;8.30;99.90;;;;;;5010182;28;20510;-92
2024/02/29 10:17:11;;;;;;;21.27;2.83;;;8.20;99.90;;;;;;4995334;28;20072;-90
2024/02/29 10:19:38;;;;;;;12.18;2.00;;;8.20;99.90;;;;;;4992718;28;20030;-91
2024/02/29 10:22:04;;;;;;;19.73;3.10;;;8.20;99.90;;;;;;5011630;28;20188;-92
2024/02/29 10:24:30;;;;;;;18.58;2.38;;;8.20;99.90;;;;;;4995623;28;20109;-91
2024/02/29 10:27:02;;;;;;;16.73;2.17;;;8.20;99.90;;;;;;4989693;28;20029;-89
2024/02/29 10:29:31;;;;;;;21.65;2.20;;;8.20;99.90;;;;;;4994672;28;20095;-90
2024/02/29 10:31:58;;;;;;;14.85;2.53;;;8.20;99.90;;;;;;4995468;28;20018;-89
2024/02/29 10:34:24;;;;;;;15.93;2.38;;;8.20;99.90;;;;;;5010446;28;20113;-90
2024/02/29 10:36:50;;;;;;;16.08;2.53;;;8.30;99.90;;;;;;5010713;28;20122;-91
2024/02/29 10:39:16;;;;;;;16.20;2.17;;;8.40;99.90;;;;;;4994129;28;20080;-92
2024/02/29 10:41:48;;;;;;;13.30;2.33;;;8.50;99.90;;;;;;4993356;28;20021;-90
2024/02/29 10:44:18;;;;;;;15.02;2.20;;;8.50;99.90;;;;;;4994800;28;20499;-92
2024/02/29 10:46:47;;;;;;;15.90;2.42;;;8.60;99.90;;;;;;4994418;28;20072;-89
2024/02/29 10:49:21;;;;;;;20.55;2.92;;;8.60;99.90;;;;;;4994602;28;20029;-91
2024/02/29 10:51:57;;;;;;;14.75;2.10;;;8.60;99.90;;;;;;4994562;28;20030;-90
2024/02/29 10:54:39;;;;;;;22.48;3.67;;;8.70;99.90;;;;;;5000554;28;20046;-91
2024/02/29 10:57:14;;;;;;;14.50;3.05;;;8.70;99.90;;;;;;5012215;28;20026;-90
2024/02/29 10:59:42;;;;;;;17.50;2.55;;;8.70;99.90;;;;;;4994644;28;20104;-91
2024/02/29 11:02:09;;;;;;;19.60;2.70;;;8.70;99.90;;;;;;4994264;28;20071;-91
2024/02/29 11:04:35;;;;;;;19.25;2.30;;;8.80;99.90;;;;;;4996097;28;20033;-89
2024/02/29 11:07:01;;;;;;;18.40;2.95;;;8.80;99.90;;;;;;4993899;28;20022;-91
2024/02/29 11:09:31;;;;;;;24.00;3.13;;;8.90;99.90;;;;;;4994355;28;20017;-93
2024/02/29 11:12:28;;;;;;;18.95;2.45;;;8.90;99.90;;;;;;4994301;28;20030;-92
2024/02/29 11:14:57;;;;;;;16.38;2.70;;;8.90;99.90;;;;;;4985374;28;20030;-91
2024/02/29 11:17:26;;;;;;;15.80;2.28;;;8.90;99.90;;;;;;4993579;28;20033;-91
2024/02/29 11:20:03;;;;;;;16.55;2.95;;;8.90;99.90;;;;;;4993998;28;20029;-91
2024/02/29 11:22:33;;;;;;;17.13;2.80;;;8.90;99.90;;;;;;4998762;28;20427;-90
2024/02/29 11:25:00;;;;;;;26.20;3.20;;;8.90;99.90;;;;;;4995802;28;20125;-90
2024/02/29 11:27:30;;;;;;;19.45;2.72;;;8.90;99.90;;;;;;4994351;28;20509;-91
2024/02/29 11:30:03;;;;;;;16.23;2.55;;;8.90;99.90;;;;;;4993764;28;20033;-89
2024/02/29 11:32:33;;;;;;;17.67;3.55;;;8.90;99.90;;;;;;4993531;28;20022;-92
2024/02/29 11:35:00;;;;;;;22.48;3.80;;;8.90;99.90;;;;;;5008008;28;20026;-93
2024/02/29 11:37:29;;;;;;;15.30;3.40;;;8.80;99.90;;;;;;4993243;28;20042;-91
2024/02/29 11:40:04;;;;;;;21.73;3.72;;;8.80;99.90;;;;;;4992472;28;20123;-90
2024/02/29 11:42:30;;;;;;;21.10;4.05;;;8.70;99.90;;;;;;4993674;28;20028;-91
2024/02/29 11:44:56;;;;;;;15.48;3.20;;;8.70;99.90;;;;;;4993440;28;20038;-92
2024/02/29 11:47:21;;;;;;;19.00;3.90;;;8.70;99.90;;;;;;4993328;28;20079;-90
2024/02/29 11:49:48;;;;;;;15.23;3.72;;;8.70;99.90;;;;;;4991604;28;20122;-92
2024/02/29 11:52:15;;;;;;;23.15;4.13;;;8.70;99.90;;;;;;4993077;28;20037;-91
2024/02/29 11:54:42;;;;;;;15.02;3.10;;;8.70;99.90;;;;;;4993730;28;20030;-91
2024/02/29 11:57:07;;;;;;;14.65;3.35;;;8.70;99.90;;;;;;4993270;28;20129;-90
2024/02/29 11:59:33;;;;;;;23.13;4.07;;;8.70;99.90;;;;;;4992880;28;20400;-91
2024/02/29 12:01:59;;;;;;;18.50;3.00;;;8.70;99.90;;;;;;4993120;28;20029;-91
2024/02/29 12:04:27;;;;;;;18.90;3.72;;;8.70;99.90;;;;;;4991908;28;20104;-90
2024/02/29 12:06:52;;;;;;;20.88;2.70;;;8.80;99.90;;;;;;4994267;28;20156;-90
2024/02/29 12:09:18;;;;;;;23.02;2.92;;;8.80;99.90;;;;;;4994539;28;20133;-91
2024/02/29 12:11:45;;;;;;;15.20;2.85;;;8.80;99.90;;;;;;5011909;28;20033;-91
2024/02/29 12:14:12;;;;;;;18.63;2.83;;;8.80;99.90;;;;;;4992964;28;20029;-91
2024/02/29 12:16:42;;;;;;;9.95;2.60;;;8.90;99.90;;;;;;4993446;28;20124;-92
2024/02/29 12:19:08;;;;;;;10.40;2.33;;;8.90;99.90;;;;;;4993834;28;20131;-90
2024/02/29 12:21:37;;;;;;;14.50;2.20;;;8.90;99.90;;;;;;4993238;28;20471;-89
2024/02/29 12:24:04;;;;;;;14.27;2.50;;;8.90;99.90;;;;;;4993312;28;20631;-91
2024/02/29 12:26:31;;;;;;;19.10;2.67;;;8.90;99.90;;;;;;4993500;28;20025;-91
2024/02/29 12:28:57;;;;;;;10.20;2.45;;;8.90;99.90;;;;;;4993201;28;20049;-91
2024/02/29 12:31:23;;;;;;;16.88;2.60;;;8.90;99.90;;;;;;4992616;28;20026;-91
2024/02/29 12:33:48;;;;;;;15.75;2.80;;;8.90;99.90;;;;;;5010541;28;20038;-91
2024/02/29 12:36:18;;;;;;;11.35;2.53;;;8.90;99.90;;;;;;4992755;28;20032;-91
2024/02/29 12:38:46;;;;;;;15.02;2.13;;;8.90;99.90;;;;;;4994262;28;20092;-90
2024/02/29 12:41:13;;;;;;;17.17;2.58;;;8.90;99.90;;;;;;4997405;28;20022;-92
2024/02/29 12:43:54;;;;;;;18.92;2.58;;;8.90;99.90;;;;;;4995875;28;20033;-91
2024/02/29 12:46:19;;;;;;;;;;;8.80;99.90;;;;;;5004911;28;20037;-90
2024/02/29 12:48:46;;;;;;;14.70;2.38;;;8.80;99.90;;;;;;5004347;28;19910;-90